createdAt,value
2017-09-01T00:00:08.872Z,70.18
2017-09-01T00:01:08.900Z,70.18
2017-09-01T00:03:03.336Z,69.89
2017-09-01T00:04:03.360Z,70.18
2017-09-01T00:05:57.840Z,70.18
2017-09-01T00:06:57.865Z,70.09
2017-09-01T00:08:52.393Z,69.89
2017-09-01T00:09:52.360Z,69.80
2017-09-01T00:11:46.872Z,70.05
2017-09-01T00:12:46.840Z,70.18
2017-09-01T00:14:41.361Z,70.47
2017-09-01T00:15:41.328Z,69.89
2017-09-01T00:17:35.841Z,70.09
2017-09-01T00:18:35.873Z,70.09
2017-09-01T00:20:30.329Z,70.18
2017-09-01T00:21:30.345Z,70.09
2017-09-01T00:23:26.281Z,70.28
2017-09-01T00:24:26.377Z,70.05
2017-09-01T00:26:19.817Z,70.53
2017-09-01T00:27:19.833Z,70.43
2017-09-01T00:29:14.337Z,70.34
2017-09-01T00:30:14.321Z,70.43
2017-09-01T00:32:08.769Z,70.43
2017-09-01T00:33:08.810Z,70.53
2017-09-01T00:35:03.305Z,70.34
2017-09-01T00:36:03.338Z,70.34
2017-09-01T00:37:56.929Z,70.43
2017-09-01T00:38:56.850Z,70.05
2017-09-01T00:40:51.329Z,70.72
2017-09-01T00:41:51.362Z,70.81
2017-09-01T00:43:44.946Z,71.30
2017-09-01T00:44:44.945Z,70.81
2017-09-01T00:46:38.442Z,71.39
2017-09-01T00:47:38.490Z,71.20
2017-09-01T00:49:32.690Z,71.11
2017-09-01T00:50:32.730Z,71.11
2017-09-01T00:52:26.034Z,71.11
2017-09-01T00:53:26.046Z,71.11
2017-09-01T00:55:22.010Z,71.01
2017-09-01T00:56:22.010Z,70.91
2017-09-01T00:58:16.538Z,70.91
2017-09-01T00:59:16.522Z,71.30
2017-09-01T01:01:10.971Z,71.58
2017-09-01T01:02:10.995Z,71.20
2017-09-01T01:04:05.506Z,71.39
2017-09-01T01:05:05.538Z,71.39
2017-09-01T01:06:59.963Z,70.81
2017-09-01T01:07:59.987Z,71.11
2017-09-01T01:09:54.475Z,71.01
2017-09-01T01:10:54.539Z,70.91
2017-09-01T01:12:48.979Z,71.01
2017-09-01T01:13:49.003Z,70.81
2017-09-01T01:15:43.451Z,71.39
2017-09-01T01:16:43.523Z,71.20
2017-09-01T01:18:38.995Z,71.11
2017-09-01T01:19:39.036Z,71.11
2017-09-01T01:21:34.115Z,71.01
2017-09-01T01:22:34.107Z,71.01
2017-09-01T01:24:27.571Z,71.77
2017-09-01T01:25:27.604Z,71.77
2017-09-01T01:27:22.041Z,71.39
2017-09-01T01:28:22.041Z,71.39
2017-09-01T01:30:16.530Z,71.58
2017-09-01T01:31:16.538Z,71.68
2017-09-01T01:33:11.026Z,71.77
2017-09-01T01:34:11.090Z,71.11
2017-09-01T01:36:05.547Z,71.39
2017-09-01T01:37:05.555Z,71.39
2017-09-01T01:39:00.018Z,71.77
2017-09-01T01:40:00.051Z,71.39
2017-09-01T01:41:54.530Z,71.68
2017-09-01T01:42:54.538Z,71.48
2017-09-01T01:44:48.979Z,71.30
2017-09-01T01:45:49.029Z,71.68
2017-09-01T01:47:42.507Z,71.81
2017-09-01T01:48:42.534Z,71.71
2017-09-01T01:50:39.059Z,71.68
2017-09-01T01:51:37.643Z,71.87
2017-09-01T01:53:32.051Z,71.68
2017-09-01T01:54:32.091Z,71.77
2017-09-01T01:56:26.635Z,71.48
2017-09-01T01:57:26.579Z,71.52
2017-09-01T01:59:21.043Z,71.68
2017-09-01T02:00:21.067Z,71.91
2017-09-01T02:02:15.523Z,72.00
2017-09-01T02:03:15.556Z,71.62
2017-09-01T02:05:10.691Z,71.68
2017-09-01T02:06:10.707Z,71.68
2017-09-01T02:08:05.067Z,71.81
2017-09-01T02:09:05.131Z,71.77
2017-09-01T02:10:59.587Z,71.30
2017-09-01T02:11:59.611Z,71.77
2017-09-01T02:13:54.088Z,71.87
2017-09-01T02:14:54.123Z,71.68
2017-09-01T02:16:48.572Z,71.77
2017-09-01T02:17:48.604Z,71.58
2017-09-01T02:19:43.084Z,71.77
2017-09-01T02:20:43.111Z,71.58
2017-09-01T02:22:36.540Z,71.68
2017-09-01T02:23:36.596Z,71.77
2017-09-01T02:25:31.038Z,71.87
2017-09-01T02:28:25.516Z,72.06
2017-09-01T02:29:25.564Z,71.97
2017-09-01T02:31:20.020Z,72.34
2017-09-01T02:32:20.060Z,71.68
2017-09-01T02:34:14.516Z,71.77
2017-09-01T02:35:14.550Z,72.34
2017-09-01T02:37:09.029Z,72.44
2017-09-01T02:38:09.045Z,72.06
2017-09-01T02:40:12.164Z,72.63
2017-09-01T02:41:03.550Z,72.25
2017-09-01T02:42:58.005Z,72.54
2017-09-01T02:43:58.029Z,72.54
2017-09-01T02:45:52.485Z,72.44
2017-09-01T02:46:52.541Z,72.25
2017-09-01T02:48:46.989Z,72.44
2017-09-01T02:49:47.021Z,72.16
2017-09-01T02:51:41.445Z,72.25
2017-09-01T02:52:41.509Z,72.16
2017-09-01T02:54:35.989Z,72.63
2017-09-01T02:55:35.981Z,72.34
2017-09-01T02:57:29.470Z,73.02
2017-09-01T02:58:29.501Z,73.11
2017-09-01T03:00:23.974Z,72.83
2017-09-01T03:01:23.974Z,72.73
2017-09-01T03:03:18.462Z,73.02
2017-09-01T03:04:18.606Z,72.83
2017-09-01T03:06:12.950Z,72.83
2017-09-01T03:07:12.996Z,72.54
2017-09-01T03:09:07.493Z,73.02
2017-09-01T03:10:07.468Z,73.21
2017-09-01T03:12:01.917Z,73.40
2017-09-01T03:13:09.605Z,73.69
2017-09-01T03:14:56.437Z,73.30
2017-09-01T03:15:56.437Z,73.21
2017-09-01T03:17:49.949Z,73.50
2017-09-01T03:18:49.960Z,73.59
2017-09-01T03:20:44.421Z,73.40
2017-09-01T03:21:44.460Z,73.69
2017-09-01T03:23:38.901Z,73.54
2017-09-01T03:24:38.933Z,73.30
2017-09-01T03:26:33.437Z,73.44
2017-09-01T03:27:33.429Z,73.59
2017-09-01T03:29:27.888Z,73.44
2017-09-01T03:30:27.919Z,73.44
2017-09-01T03:32:22.358Z,73.54
2017-09-01T03:33:31.054Z,73.34
2017-09-01T03:35:16.910Z,73.34
2017-09-01T03:36:16.902Z,73.21
2017-09-01T03:38:11.385Z,73.44
2017-09-01T03:39:11.406Z,73.54
2017-09-01T03:41:05.870Z,73.72
2017-09-01T03:42:05.878Z,73.91
2017-09-01T03:44:00.374Z,73.72
2017-09-01T03:45:00.366Z,73.82
2017-09-01T03:46:54.823Z,74.01
2017-09-01T03:47:54.854Z,74.01
2017-09-01T03:49:50.959Z,73.91
2017-09-01T03:50:50.999Z,73.91
2017-09-01T03:52:45.053Z,73.91
2017-09-01T03:53:45.927Z,74.01
2017-09-01T03:55:39.447Z,73.91
2017-09-01T03:56:39.519Z,73.82
2017-09-01T03:58:32.983Z,74.01
2017-09-01T03:59:32.975Z,74.20
2017-09-01T04:01:27.432Z,73.63
2017-09-01T04:02:36.087Z,74.01
2017-09-01T04:04:21.927Z,73.91
2017-09-01T04:05:21.951Z,73.91
2017-09-01T04:07:17.897Z,73.82
2017-09-01T04:08:17.927Z,73.72
2017-09-01T04:10:15.047Z,73.72
2017-09-01T04:11:15.080Z,73.82
2017-09-01T04:13:10.447Z,74.11
2017-09-01T04:14:10.504Z,73.72
2017-09-01T04:16:04.960Z,74.11
2017-09-01T04:17:04.997Z,73.82
2017-09-01T04:19:07.160Z,74.01
2017-09-01T04:19:58.480Z,73.91
2017-09-01T04:21:53.952Z,73.91
2017-09-01T04:22:53.984Z,73.91
2017-09-01T04:24:47.536Z,73.82
2017-09-01T04:25:47.673Z,73.82
2017-09-01T04:27:50.360Z,73.54
2017-09-01T04:28:42.217Z,74.11
2017-09-01T04:30:36.848Z,74.40
2017-09-01T04:31:36.800Z,74.01
2017-09-01T04:33:31.128Z,74.49
2017-09-01T04:34:31.144Z,74.30
2017-09-01T04:36:27.273Z,74.11
2017-09-01T04:37:27.337Z,74.01
2017-09-01T04:39:22.230Z,73.91
2017-09-01T04:40:20.769Z,74.11
2017-09-01T04:42:15.265Z,74.30
2017-09-01T04:43:15.298Z,73.54
2017-09-01T04:45:09.337Z,74.11
2017-09-01T04:46:09.417Z,73.82
2017-09-01T04:48:02.449Z,74.01
2017-09-01T04:49:02.410Z,74.30
2017-09-01T04:50:56.825Z,73.63
2017-09-01T04:52:05.577Z,73.91
2017-09-01T04:53:51.361Z,73.91
2017-09-01T04:54:51.370Z,73.54
2017-09-01T04:56:44.985Z,73.63
2017-09-01T04:57:45.017Z,73.82
2017-09-01T04:59:37.969Z,73.91
2017-09-01T05:00:37.953Z,73.91
2017-09-01T05:02:31.588Z,74.01
2017-09-01T05:03:31.577Z,73.72
2017-09-01T05:05:25.146Z,74.01
2017-09-01T05:06:25.106Z,74.01
2017-09-01T05:08:18.137Z,74.20
2017-09-01T05:09:18.121Z,74.40
2017-09-01T05:11:11.160Z,73.44
2017-09-01T05:12:11.232Z,73.54
2017-09-01T05:14:05.992Z,73.44
2017-09-01T05:15:05.816Z,73.44
2017-09-01T05:16:59.536Z,73.44
2017-09-01T05:17:59.183Z,73.34
2017-09-01T05:19:53.760Z,72.86
2017-09-01T05:20:53.785Z,72.77
2017-09-01T05:22:47.235Z,72.67
2017-09-01T05:23:47.299Z,72.86
2017-09-01T05:25:40.810Z,72.67
2017-09-01T05:26:40.947Z,72.96
2017-09-01T05:28:34.396Z,72.96
2017-09-01T05:29:34.476Z,72.38
2017-09-01T05:31:28.237Z,73.05
2017-09-01T05:32:28.172Z,72.58
2017-09-01T05:34:21.620Z,72.96
2017-09-01T05:35:21.637Z,72.96
2017-09-01T05:37:16.268Z,72.96
2017-09-01T05:38:16.340Z,73.15
2017-09-01T05:40:10.605Z,72.86
2017-09-01T05:41:10.628Z,72.67
2017-09-01T05:43:04.717Z,72.96
2017-09-01T05:44:04.277Z,72.29
2017-09-01T05:45:58.661Z,72.29
2017-09-01T05:46:58.882Z,72.58
2017-09-01T05:48:53.174Z,72.29
2017-09-01T05:49:53.269Z,72.29
2017-09-01T05:51:47.669Z,72.96
2017-09-01T05:52:47.709Z,72.96
2017-09-01T05:54:42.149Z,72.86
2017-09-01T05:55:42.213Z,72.86
2017-09-01T05:57:36.669Z,72.86
2017-09-01T05:58:36.693Z,72.67
2017-09-01T06:00:31.533Z,72.29
2017-09-01T06:01:31.197Z,72.48
2017-09-01T06:03:24.782Z,72.29
2017-09-01T06:04:24.710Z,72.38
2017-09-01T06:06:19.157Z,72.38
2017-09-01T06:07:19.222Z,72.19
2017-09-01T06:09:13.702Z,72.19
2017-09-01T06:10:13.790Z,72.38
2017-09-01T06:12:08.150Z,72.48
2017-09-01T06:13:08.190Z,72.67
2017-09-01T06:15:02.725Z,72.38
2017-09-01T06:16:02.702Z,72.48
2017-09-01T06:17:56.174Z,72.58
2017-09-01T06:18:56.230Z,72.48
2017-09-01T06:20:49.223Z,72.48
2017-09-01T06:21:49.222Z,72.00
2017-09-01T06:23:42.254Z,72.38
2017-09-01T06:24:42.254Z,72.71
2017-09-01T06:26:36.758Z,71.81
2017-09-01T06:27:36.806Z,71.81
2017-09-01T06:29:32.254Z,72.13
2017-09-01T06:30:32.272Z,72.52
2017-09-01T06:32:26.767Z,72.52
2017-09-01T06:33:26.751Z,72.13
2017-09-01T06:35:20.255Z,72.13
2017-09-01T06:36:20.271Z,72.03
2017-09-01T06:38:14.559Z,71.94
2017-09-01T06:39:14.230Z,72.13
2017-09-01T06:41:08.799Z,72.03
